sensor_id;sensor_type;location;lat;lon;timestamp;temperature;humidity
47546;DHT22;50104;52.002;4.688;2022-12-07T00:01:52;4.90;87.90
47546;DHT22;50104;52.002;4.688;2022-12-07T00:06:53;4.90;88.50
47546;DHT22;50104;52.002;4.688;2022-12-07T00:11:55;4.90;88.70
47546;DHT22;50104;52.002;4.688;2022-12-07T00:16:56;4.90;88.90
47546;DHT22;50104;52.002;4.688;2022-12-07T00:21:56;4.90;89.00
47546;DHT22;50104;52.002;4.688;2022-12-07T00:26:57;4.90;89.10
47546;DHT22;50104;52.002;4.688;2022-12-07T00:31:58;5.00;89.30
47546;DHT22;50104;52.002;4.688;2022-12-07T00:36:59;5.00;89.30
47546;DHT22;50104;52.002;4.688;2022-12-07T00:41:59;5.10;89.20
47546;DHT22;50104;52.002;4.688;2022-12-07T00:47:00;5.10;88.90
47546;DHT22;50104;52.002;4.688;2022-12-07T00:52:01;5.10;88.60
47546;DHT22;50104;52.002;4.688;2022-12-07T00:57:02;5.10;88.30
47546;DHT22;50104;52.002;4.688;2022-12-07T01:02:02;5.00;88.30
47546;DHT22;50104;52.002;4.688;2022-12-07T01:07:03;5.00;88.30
47546;DHT22;50104;52.002;4.688;2022-12-07T01:12:04;5.00;88.60
47546;DHT22;50104;52.002;4.688;2022-12-07T01:17:05;5.00;89.10
47546;DHT22;50104;52.002;4.688;2022-12-07T01:22:06;5.10;89.20
47546;DHT22;50104;52.002;4.688;2022-12-07T01:27:06;5.10;89.10
47546;DHT22;50104;52.002;4.688;2022-12-07T01:32:07;5.20;89.20
47546;DHT22;50104;52.002;4.688;2022-12-07T01:37:08;5.20;89.10
47546;DHT22;50104;52.002;4.688;2022-12-07T01:42:10;5.20;89.00
47546;DHT22;50104;52.002;4.688;2022-12-07T01:47:12;5.20;89.10
47546;DHT22;50104;52.002;4.688;2022-12-07T01:52:24;5.30;89.00
47546;DHT22;50104;52.002;4.688;2022-12-07T01:57:27;5.30;89.10
47546;DHT22;50104;52.002;4.688;2022-12-07T02:02:33;5.30;88.80
47546;DHT22;50104;52.002;4.688;2022-12-07T02:07:36;5.30;88.50
47546;DHT22;50104;52.002;4.688;2022-12-07T02:12:38;5.30;88.30
47546;DHT22;50104;52.002;4.688;2022-12-07T02:18:00;5.20;88.40
47546;DHT22;50104;52.002;4.688;2022-12-07T02:28:37;5.20;88.80
47546;DHT22;50104;52.002;4.688;2022-12-07T02:34:07;5.20;88.80
47546;DHT22;50104;52.002;4.688;2022-12-07T02:39:36;5.20;88.60
47546;DHT22;50104;52.002;4.688;2022-12-07T02:44:41;5.20;88.50
47546;DHT22;50104;52.002;4.688;2022-12-07T02:49:44;5.20;88.50
47546;DHT22;50104;52.002;4.688;2022-12-07T02:54:45;5.20;88.50
47546;DHT22;50104;52.002;4.688;2022-12-07T03:11:13;5.20;89.10
47546;DHT22;50104;52.002;4.688;2022-12-07T03:16:20;5.20;89.00
47546;DHT22;50104;52.002;4.688;2022-12-07T03:21:27;5.20;88.90
47546;DHT22;50104;52.002;4.688;2022-12-07T03:26:40;5.20;88.80
47546;DHT22;50104;52.002;4.688;2022-12-07T03:31:47;5.20;88.60
47546;DHT22;50104;52.002;4.688;2022-12-07T03:37:05;5.20;88.60
47546;DHT22;50104;52.002;4.688;2022-12-07T03:42:10;5.20;88.50
47546;DHT22;50104;52.002;4.688;2022-12-07T03:47:26;5.20;88.70
47546;DHT22;50104;52.002;4.688;2022-12-07T03:52:45;5.20;88.90
47546;DHT22;50104;52.002;4.688;2022-12-07T03:57:51;5.20;88.90
47546;DHT22;50104;52.002;4.688;2022-12-07T04:02:55;5.20;88.80
47546;DHT22;50104;52.002;4.688;2022-12-07T04:07:56;5.20;88.70
47546;DHT22;50104;52.002;4.688;2022-12-07T04:12:56;5.20;88.50
47546;DHT22;50104;52.002;4.688;2022-12-07T04:17:57;5.10;88.40
47546;DHT22;50104;52.002;4.688;2022-12-07T04:22:58;5.10;88.20
47546;DHT22;50104;52.002;4.688;2022-12-07T04:27:59;5.10;88.00
47546;DHT22;50104;52.002;4.688;2022-12-07T04:33:00;5.00;87.70
47546;DHT22;50104;52.002;4.688;2022-12-07T04:38:00;5.00;87.60
47546;DHT22;50104;52.002;4.688;2022-12-07T04:43:01;4.90;87.70
47546;DHT22;50104;52.002;4.688;2022-12-07T04:48:02;4.80;88.00
47546;DHT22;50104;52.002;4.688;2022-12-07T04:53:03;4.80;88.50
47546;DHT22;50104;52.002;4.688;2022-12-07T04:58:04;4.70;88.70
47546;DHT22;50104;52.002;4.688;2022-12-07T05:03:05;4.70;88.80
47546;DHT22;50104;52.002;4.688;2022-12-07T05:08:06;4.70;88.80
47546;DHT22;50104;52.002;4.688;2022-12-07T05:13:06;4.70;88.90
47546;DHT22;50104;52.002;4.688;2022-12-07T05:18:07;4.70;88.90
47546;DHT22;50104;52.002;4.688;2022-12-07T05:23:09;4.80;88.90
47546;DHT22;50104;52.002;4.688;2022-12-07T05:28:10;4.70;88.70
47546;DHT22;50104;52.002;4.688;2022-12-07T05:33:11;4.70;88.50
47546;DHT22;50104;52.002;4.688;2022-12-07T05:38:12;4.70;88.10
47546;DHT22;50104;52.002;4.688;2022-12-07T05:43:12;4.70;88.00
47546;DHT22;50104;52.002;4.688;2022-12-07T05:48:13;4.70;88.00
47546;DHT22;50104;52.002;4.688;2022-12-07T05:53:14;4.60;88.10
47546;DHT22;50104;52.002;4.688;2022-12-07T05:58:15;4.60;88.30
47546;DHT22;50104;52.002;4.688;2022-12-07T06:03:35;4.60;88.30
47546;DHT22;50104;52.002;4.688;2022-12-07T06:08:35;4.60;88.20
47546;DHT22;50104;52.002;4.688;2022-12-07T06:13:36;4.50;88.00
47546;DHT22;50104;52.002;4.688;2022-12-07T06:18:37;4.50;87.80
47546;DHT22;50104;52.002;4.688;2022-12-07T06:23:38;4.40;87.80
47546;DHT22;50104;52.002;4.688;2022-12-07T06:28:38;4.40;87.80
47546;DHT22;50104;52.002;4.688;2022-12-07T06:33:39;4.30;87.70
47546;DHT22;50104;52.002;4.688;2022-12-07T06:38:41;4.30;87.70
47546;DHT22;50104;52.002;4.688;2022-12-07T06:43:41;4.20;87.60
47546;DHT22;50104;52.002;4.688;2022-12-07T06:48:43;4.10;87.50
47546;DHT22;50104;52.002;4.688;2022-12-07T06:53:48;4.10;87.50
47546;DHT22;50104;52.002;4.688;2022-12-07T06:58:49;4.00;87.50
47546;DHT22;50104;52.002;4.688;2022-12-07T07:03:50;3.90;87.80
47546;DHT22;50104;52.002;4.688;2022-12-07T07:08:50;3.90;88.20
47546;DHT22;50104;52.002;4.688;2022-12-07T07:13:51;3.90;88.50
47546;DHT22;50104;52.002;4.688;2022-12-07T07:18:52;3.90;88.70
47546;DHT22;50104;52.002;4.688;2022-12-07T07:23:53;3.90;88.70
47546;DHT22;50104;52.002;4.688;2022-12-07T07:28:53;3.90;89.20
47546;DHT22;50104;52.002;4.688;2022-12-07T07:33:54;3.90;88.90
47546;DHT22;50104;52.002;4.688;2022-12-07T07:38:55;3.90;88.60
47546;DHT22;50104;52.002;4.688;2022-12-07T07:43:57;3.90;88.50
47546;DHT22;50104;52.002;4.688;2022-12-07T07:48:58;3.90;88.10
47546;DHT22;50104;52.002;4.688;2022-12-07T07:53:58;3.80;88.10
47546;DHT22;50104;52.002;4.688;2022-12-07T07:58:59;3.80;88.50
47546;DHT22;50104;52.002;4.688;2022-12-07T08:04:00;3.80;88.60
47546;DHT22;50104;52.002;4.688;2022-12-07T08:09:02;3.80;88.70
47546;DHT22;50104;52.002;4.688;2022-12-07T08:14:03;3.80;88.90
47546;DHT22;50104;52.002;4.688;2022-12-07T08:19:07;3.90;89.10
47546;DHT22;50104;52.002;4.688;2022-12-07T08:24:08;3.90;88.90
47546;DHT22;50104;52.002;4.688;2022-12-07T08:29:08;3.90;88.80
47546;DHT22;50104;52.002;4.688;2022-12-07T08:34:13;3.90;88.80
47546;DHT22;50104;52.002;4.688;2022-12-07T08:39:14;3.90;88.80
47546;DHT22;50104;52.002;4.688;2022-12-07T08:44:15;3.90;88.80
47546;DHT22;50104;52.002;4.688;2022-12-07T08:49:22;3.90;89.00
47546;DHT22;50104;52.002;4.688;2022-12-07T08:54:26;4.00;89.00
47546;DHT22;50104;52.002;4.688;2022-12-07T08:59:28;4.00;89.00
47546;DHT22;50104;52.002;4.688;2022-12-07T09:04:29;4.10;89.10
47546;DHT22;50104;52.002;4.688;2022-12-07T09:09:30;4.10;89.20
47546;DHT22;50104;52.002;4.688;2022-12-07T09:14:32;4.20;89.50
47546;DHT22;50104;52.002;4.688;2022-12-07T09:19:33;4.30;89.70
47546;DHT22;50104;52.002;4.688;2022-12-07T09:24:34;4.30;89.80
47546;DHT22;50104;52.002;4.688;2022-12-07T09:29:35;4.40;90.20
47546;DHT22;50104;52.002;4.688;2022-12-07T09:34:35;4.50;90.40
47546;DHT22;50104;52.002;4.688;2022-12-07T09:39:40;4.70;90.70
47546;DHT22;50104;52.002;4.688;2022-12-07T09:44:41;4.80;90.80
47546;DHT22;50104;52.002;4.688;2022-12-07T09:49:42;4.90;90.60
47546;DHT22;50104;52.002;4.688;2022-12-07T09:54:47;5.00;90.60
47546;DHT22;50104;52.002;4.688;2022-12-07T09:59:49;5.10;90.70
47546;DHT22;50104;52.002;4.688;2022-12-07T10:04:50;5.20;90.60
47546;DHT22;50104;52.002;4.688;2022-12-07T10:09:51;5.30;90.60
47546;DHT22;50104;52.002;4.688;2022-12-07T10:15:03;5.40;90.50
47546;DHT22;50104;52.002;4.688;2022-12-07T10:20:20;5.40;90.50
47546;DHT22;50104;52.002;4.688;2022-12-07T10:25:27;5.50;90.90
47546;DHT22;50104;52.002;4.688;2022-12-07T10:30:33;5.60;91.20
47546;DHT22;50104;52.002;4.688;2022-12-07T10:35:47;5.80;91.00
47546;DHT22;50104;52.002;4.688;2022-12-07T10:40:47;5.90;90.30
47546;DHT22;50104;52.002;4.688;2022-12-07T10:46:20;6.00;89.80
47546;DHT22;50104;52.002;4.688;2022-12-07T11:08:44;6.50;90.50
47546;DHT22;50104;52.002;4.688;2022-12-07T11:14:28;6.60;89.60
47546;DHT22;50104;52.002;4.688;2022-12-07T11:20:21;6.70;88.70
47546;DHT22;50104;52.002;4.688;2022-12-07T11:25:35;6.80;88.80
47546;DHT22;50104;52.002;4.688;2022-12-07T11:36:46;7.00;89.10
47546;DHT22;50104;52.002;4.688;2022-12-07T11:41:55;7.10;88.90
47546;DHT22;50104;52.002;4.688;2022-12-07T11:47:13;7.20;88.50
47546;DHT22;50104;52.002;4.688;2022-12-07T11:58:42;7.50;87.50
47546;DHT22;50104;52.002;4.688;2022-12-07T12:03:53;7.60;86.90
47546;DHT22;50104;52.002;4.688;2022-12-07T12:09:27;7.70;86.70
47546;DHT22;50104;52.002;4.688;2022-12-07T12:20:23;7.60;85.80
47546;DHT22;50104;52.002;4.688;2022-12-07T12:25:39;7.60;85.80
47546;DHT22;50104;52.002;4.688;2022-12-07T12:30:42;7.60;86.00
47546;DHT22;50104;52.002;4.688;2022-12-07T12:35:43;7.50;86.10
47546;DHT22;50104;52.002;4.688;2022-12-07T12:40:45;7.50;86.10
47546;DHT22;50104;52.002;4.688;2022-12-07T12:45:46;7.50;86.50
47546;DHT22;50104;52.002;4.688;2022-12-07T12:50:46;7.40;86.30
47546;DHT22;50104;52.002;4.688;2022-12-07T12:56:02;7.40;86.10
47546;DHT22;50104;52.002;4.688;2022-12-07T13:16:38;7.40;87.00
47546;DHT22;50104;52.002;4.688;2022-12-07T13:21:41;7.40;87.20
47546;DHT22;50104;52.002;4.688;2022-12-07T13:26:43;7.50;87.20
47546;DHT22;50104;52.002;4.688;2022-12-07T13:31:55;7.60;86.80
47546;DHT22;50104;52.002;4.688;2022-12-07T13:36:56;7.60;86.50
47546;DHT22;50104;52.002;4.688;2022-12-07T13:41:59;7.70;86.40
47546;DHT22;50104;52.002;4.688;2022-12-07T13:47:05;7.70;86.30
47546;DHT22;50104;52.002;4.688;2022-12-07T13:52:27;7.70;86.50
47546;DHT22;50104;52.002;4.688;2022-12-07T13:57:33;7.70;86.60
47546;DHT22;50104;52.002;4.688;2022-12-07T14:02:35;7.70;86.90
47546;DHT22;50104;52.002;4.688;2022-12-07T14:07:49;7.70;87.10
47546;DHT22;50104;52.002;4.688;2022-12-07T14:12:56;7.80;87.30
47546;DHT22;50104;52.002;4.688;2022-12-07T14:17:59;7.80;87.40
47546;DHT22;50104;52.002;4.688;2022-12-07T14:23:06;7.90;87.30
47546;DHT22;50104;52.002;4.688;2022-12-07T14:33:28;8.00;86.70
47546;DHT22;50104;52.002;4.688;2022-12-07T14:38:29;8.10;86.30
47546;DHT22;50104;52.002;4.688;2022-12-07T14:43:29;8.00;85.90
47546;DHT22;50104;52.002;4.688;2022-12-07T14:48:30;8.00;85.70
47546;DHT22;50104;52.002;4.688;2022-12-07T14:53:35;8.00;85.50
47546;DHT22;50104;52.002;4.688;2022-12-07T14:58:37;7.90;85.40
47546;DHT22;50104;52.002;4.688;2022-12-07T15:03:38;7.90;85.30
47546;DHT22;50104;52.002;4.688;2022-12-07T15:08:39;7.80;85.30
47546;DHT22;50104;52.002;4.688;2022-12-07T15:13:40;7.80;85.30
47546;DHT22;50104;52.002;4.688;2022-12-07T15:18:59;7.70;85.30
47546;DHT22;50104;52.002;4.688;2022-12-07T15:24:00;7.60;85.30
47546;DHT22;50104;52.002;4.688;2022-12-07T15:29:01;7.60;85.50
47546;DHT22;50104;52.002;4.688;2022-12-07T15:34:03;7.50;85.60
47546;DHT22;50104;52.002;4.688;2022-12-07T15:39:04;7.40;85.60
47546;DHT22;50104;52.002;4.688;2022-12-07T15:44:05;7.40;85.70
47546;DHT22;50104;52.002;4.688;2022-12-07T15:49:25;7.30;85.80
47546;DHT22;50104;52.002;4.688;2022-12-07T15:54:28;7.20;85.80
47546;DHT22;50104;52.002;4.688;2022-12-07T15:59:29;7.20;85.90
47546;DHT22;50104;52.002;4.688;2022-12-07T16:04:30;7.10;86.20
47546;DHT22;50104;52.002;4.688;2022-12-07T16:09:31;7.10;86.30
47546;DHT22;50104;52.002;4.688;2022-12-07T16:14:32;7.00;86.40
47546;DHT22;50104;52.002;4.688;2022-12-07T16:19:34;7.00;86.60
47546;DHT22;50104;52.002;4.688;2022-12-07T16:24:36;6.90;86.70
47546;DHT22;50104;52.002;4.688;2022-12-07T16:29:36;6.90;86.70
47546;DHT22;50104;52.002;4.688;2022-12-07T16:34:37;6.90;86.80
47546;DHT22;50104;52.002;4.688;2022-12-07T16:39:39;6.90;86.80
47546;DHT22;50104;52.002;4.688;2022-12-07T16:44:40;6.80;86.70
47546;DHT22;50104;52.002;4.688;2022-12-07T16:49:42;6.80;86.70
47546;DHT22;50104;52.002;4.688;2022-12-07T16:54:43;6.70;86.80
47546;DHT22;50104;52.002;4.688;2022-12-07T16:59:45;6.70;86.90
47546;DHT22;50104;52.002;4.688;2022-12-07T17:04:46;6.70;86.90
47546;DHT22;50104;52.002;4.688;2022-12-07T17:09:46;6.60;86.90
47546;DHT22;50104;52.002;4.688;2022-12-07T17:14:47;6.60;87.00
47546;DHT22;50104;52.002;4.688;2022-12-07T17:20:18;6.50;87.00
47546;DHT22;50104;52.002;4.688;2022-12-07T17:25:19;6.50;87.00
47546;DHT22;50104;52.002;4.688;2022-12-07T17:30:20;6.50;87.00
47546;DHT22;50104;52.002;4.688;2022-12-07T17:35:21;6.40;87.10
47546;DHT22;50104;52.002;4.688;2022-12-07T17:40:22;6.40;87.10
47546;DHT22;50104;52.002;4.688;2022-12-07T17:45:23;6.30;87.20
47546;DHT22;50104;52.002;4.688;2022-12-07T17:50:24;6.30;87.30
47546;DHT22;50104;52.002;4.688;2022-12-07T17:55:43;6.30;87.40
47546;DHT22;50104;52.002;4.688;2022-12-07T18:00:44;6.30;87.60
47546;DHT22;50104;52.002;4.688;2022-12-07T18:05:45;6.30;87.50
47546;DHT22;50104;52.002;4.688;2022-12-07T18:10:47;6.30;87.60
47546;DHT22;50104;52.002;4.688;2022-12-07T18:15:55;6.30;87.60
47546;DHT22;50104;52.002;4.688;2022-12-07T18:20:56;6.30;87.50
47546;DHT22;50104;52.002;4.688;2022-12-07T18:25:57;6.30;87.60
47546;DHT22;50104;52.002;4.688;2022-12-07T18:30:58;6.30;87.60
47546;DHT22;50104;52.002;4.688;2022-12-07T18:36:00;6.30;87.50
47546;DHT22;50104;52.002;4.688;2022-12-07T18:41:03;6.20;87.50
47546;DHT22;50104;52.002;4.688;2022-12-07T18:46:19;6.20;87.50
47546;DHT22;50104;52.002;4.688;2022-12-07T18:51:20;6.20;87.60
47546;DHT22;50104;52.002;4.688;2022-12-07T18:56:23;6.20;87.70
47546;DHT22;50104;52.002;4.688;2022-12-07T19:01:25;6.20;87.90
47546;DHT22;50104;52.002;4.688;2022-12-07T19:06:27;6.20;88.00
47546;DHT22;50104;52.002;4.688;2022-12-07T19:11:30;6.20;88.00
47546;DHT22;50104;52.002;4.688;2022-12-07T19:16:58;6.20;88.00
47546;DHT22;50104;52.002;4.688;2022-12-07T19:22:03;6.20;87.90
47546;DHT22;50104;52.002;4.688;2022-12-07T19:27:05;6.20;87.90
47546;DHT22;50104;52.002;4.688;2022-12-07T19:32:08;6.20;87.80
47546;DHT22;50104;52.002;4.688;2022-12-07T19:37:10;6.20;87.80
47546;DHT22;50104;52.002;4.688;2022-12-07T19:42:13;6.10;87.70
47546;DHT22;50104;52.002;4.688;2022-12-07T19:47:14;6.10;87.70
47546;DHT22;50104;52.002;4.688;2022-12-07T19:52:16;6.00;87.70
47546;DHT22;50104;52.002;4.688;2022-12-07T19:57:17;6.00;87.70
47546;DHT22;50104;52.002;4.688;2022-12-07T20:02:18;6.00;87.70
47546;DHT22;50104;52.002;4.688;2022-12-07T20:07:19;5.90;87.70
47546;DHT22;50104;52.002;4.688;2022-12-07T20:12:19;5.90;87.70
47546;DHT22;50104;52.002;4.688;2022-12-07T20:17:39;5.90;87.80
47546;DHT22;50104;52.002;4.688;2022-12-07T20:22:39;5.90;87.90
47546;DHT22;50104;52.002;4.688;2022-12-07T20:27:40;5.80;88.00
47546;DHT22;50104;52.002;4.688;2022-12-07T20:32:41;5.80;88.10
47546;DHT22;50104;52.002;4.688;2022-12-07T20:37:42;5.80;88.10
47546;DHT22;50104;52.002;4.688;2022-12-07T20:42:42;5.80;88.20
47546;DHT22;50104;52.002;4.688;2022-12-07T20:47:43;5.70;88.20
47546;DHT22;50104;52.002;4.688;2022-12-07T20:52:44;5.70;88.30
47546;DHT22;50104;52.002;4.688;2022-12-07T20:57:45;5.70;88.40
47546;DHT22;50104;52.002;4.688;2022-12-07T21:02:46;5.70;88.40
47546;DHT22;50104;52.002;4.688;2022-12-07T21:07:47;5.70;88.50
47546;DHT22;50104;52.002;4.688;2022-12-07T21:12:47;5.70;88.50
47546;DHT22;50104;52.002;4.688;2022-12-07T21:17:48;5.70;88.50
47546;DHT22;50104;52.002;4.688;2022-12-07T21:22:49;5.70;88.50
47546;DHT22;50104;52.002;4.688;2022-12-07T21:27:50;5.70;88.50
47546;DHT22;50104;52.002;4.688;2022-12-07T21:32:51;5.70;88.50
47546;DHT22;50104;52.002;4.688;2022-12-07T21:37:55;5.70;88.50
47546;DHT22;50104;52.002;4.688;2022-12-07T21:42:56;5.60;88.60
47546;DHT22;50104;52.002;4.688;2022-12-07T21:47:58;5.60;88.60
47546;DHT22;50104;52.002;4.688;2022-12-07T21:52:58;5.60;88.70
47546;DHT22;50104;52.002;4.688;2022-12-07T21:57:59;5.60;88.70
47546;DHT22;50104;52.002;4.688;2022-12-07T22:03:00;5.60;88.70
47546;DHT22;50104;52.002;4.688;2022-12-07T22:08:02;5.60;88.60
47546;DHT22;50104;52.002;4.688;2022-12-07T22:13:03;5.60;88.50
47546;DHT22;50104;52.002;4.688;2022-12-07T22:18:04;5.60;88.30
47546;DHT22;50104;52.002;4.688;2022-12-07T22:23:05;5.60;88.20
47546;DHT22;50104;52.002;4.688;2022-12-07T22:28:06;5.60;88.20
47546;DHT22;50104;52.002;4.688;2022-12-07T22:33:06;5.60;88.30
47546;DHT22;50104;52.002;4.688;2022-12-07T22:38:07;5.60;88.40
47546;DHT22;50104;52.002;4.688;2022-12-07T22:43:08;5.60;88.50
47546;DHT22;50104;52.002;4.688;2022-12-07T22:48:09;5.60;88.60
47546;DHT22;50104;52.002;4.688;2022-12-07T22:53:09;5.60;88.60
47546;DHT22;50104;52.002;4.688;2022-12-07T22:58:10;5.60;88.70
47546;DHT22;50104;52.002;4.688;2022-12-07T23:03:13;5.60;88.90
47546;DHT22;50104;52.002;4.688;2022-12-07T23:08:14;5.60;89.30
47546;DHT22;50104;52.002;4.688;2022-12-07T23:13:16;5.60;89.30
47546;DHT22;50104;52.002;4.688;2022-12-07T23:18:35;5.60;89.10
47546;DHT22;50104;52.002;4.688;2022-12-07T23:23:36;5.60;89.10
47546;DHT22;50104;52.002;4.688;2022-12-07T23:28:37;5.60;89.30
47546;DHT22;50104;52.002;4.688;2022-12-07T23:33:39;5.60;89.40
47546;DHT22;50104;52.002;4.688;2022-12-07T23:38:44;5.60;89.30
47546;DHT22;50104;52.002;4.688;2022-12-07T23:43:46;5.60;89.10
47546;DHT22;50104;52.002;4.688;2022-12-07T23:48:48;5.60;89.10
47546;DHT22;50104;52.002;4.688;2022-12-07T23:53:51;5.60;89.00
47546;DHT22;50104;52.002;4.688;2022-12-07T23:58:53;5.60;89.00
